Terminal Aerodrome Forecast
Issued by NWS

Home | Current Version | Previous Version | Text Only | Print | Product List | Glossary On
Versions: 1 2 3 4 5 6 7 8 9 10 11 12 13 14 15 16 17 18 19 20 21 22 23 24 25 26 27 28 29 30 31 32 33 34
524
FTUS43 KGRB 281143 RRA
TAFATW
TAF
KATW 281143Z 2812/2912 18008KT P6SM VCSH SCT020 OVC070
     FM281500 19012KT P6SM BKN015 OVC050
     FM282100 19012KT P6SM SCT025 BKN050
      TEMPO 2823/2903 4SM TSRA BKN025CB
     FM290400 20005KT 6SM BR BKN025 BKN070
      TEMPO 2908/2912 4SM BR BKN005=

USA.gov is the U.S. government's official web portal to all federal, state and local government web resources and services.